sensor_id;sensor_type;location;lat;lon;timestamp;pressure;altitude;pressure_sealevel;temperature;humidity
8705;BME280;4389;41.932;25.904;2023-03-24T00:00:17;100802.81;;;5.12;100.00
8705;BME280;4389;41.932;25.904;2023-03-24T00:02:46;100803.00;;;5.09;100.00
8705;BME280;4389;41.932;25.904;2023-03-24T00:05:15;100798.50;;;5.11;100.00
8705;BME280;4389;41.932;25.904;2023-03-24T00:07:42;100797.47;;;4.85;100.00
8705;BME280;4389;41.932;25.904;2023-03-24T00:10:11;100805.31;;;4.71;100.00
8705;BME280;4389;41.932;25.904;2023-03-24T00:12:41;100797.75;;;4.81;100.00
8705;BME280;4389;41.932;25.904;2023-03-24T00:15:11;100796.59;;;4.71;100.00
8705;BME280;4389;41.932;25.904;2023-03-24T00:17:38;100789.88;;;4.67;100.00
8705;BME280;4389;41.932;25.904;2023-03-24T00:20:09;100792.88;;;4.75;100.00
8705;BME280;4389;41.932;25.904;2023-03-24T00:22:39;100791.34;;;4.71;100.00
8705;BME280;4389;41.932;25.904;2023-03-24T00:25:08;100790.41;;;4.72;100.00
8705;BME280;4389;41.932;25.904;2023-03-24T00:27:35;100793.28;;;4.53;100.00
8705;BME280;4389;41.932;25.904;2023-03-24T00:30:07;100790.59;;;4.55;100.00
8705;BME280;4389;41.932;25.904;2023-03-24T00:32:35;100783.06;;;4.35;100.00
8705;BME280;4389;41.932;25.904;2023-03-24T00:35:04;100779.41;;;4.37;100.00
8705;BME280;4389;41.932;25.904;2023-03-24T00:37:33;100779.72;;;4.47;100.00
8705;BME280;4389;41.932;25.904;2023-03-24T00:40:03;100780.47;;;4.49;100.00
8705;BME280;4389;41.932;25.904;2023-03-24T00:42:32;100777.72;;;4.07;100.00
8705;BME280;4389;41.932;25.904;2023-03-24T00:44:59;100765.03;;;4.15;100.00
8705;BME280;4389;41.932;25.904;2023-03-24T00:47:29;100771.25;;;4.28;100.00
8705;BME280;4389;41.932;25.904;2023-03-24T00:50:01;100769.47;;;4.28;100.00
8705;BME280;4389;41.932;25.904;2023-03-24T00:52:29;100770.53;;;4.11;100.00
8705;BME280;4389;41.932;25.904;2023-03-24T00:55:00;100767.25;;;4.07;100.00
8705;BME280;4389;41.932;25.904;2023-03-24T00:57:28;100773.81;;;4.14;100.00
8705;BME280;4389;41.932;25.904;2023-03-24T01:00:00;100767.38;;;3.90;100.00
8705;BME280;4389;41.932;25.904;2023-03-24T01:02:39;100762.09;;;3.76;100.00
8705;BME280;4389;41.932;25.904;2023-03-24T01:05:06;100772.78;;;3.87;100.00
8705;BME280;4389;41.932;25.904;2023-03-24T01:07:33;100769.25;;;3.88;100.00
8705;BME280;4389;41.932;25.904;2023-03-24T01:10:01;100766.03;;;3.68;100.00
8705;BME280;4389;41.932;25.904;2023-03-24T01:12:31;100760.94;;;3.51;100.00
8705;BME280;4389;41.932;25.904;2023-03-24T01:14:59;100766.16;;;3.51;100.00
8705;BME280;4389;41.932;25.904;2023-03-24T01:17:27;100769.44;;;3.70;100.00
8705;BME280;4389;41.932;25.904;2023-03-24T01:19:57;100776.09;;;3.44;100.00
8705;BME280;4389;41.932;25.904;2023-03-24T01:22:27;100771.28;;;3.37;100.00
8705;BME280;4389;41.932;25.904;2023-03-24T01:24:54;100768.44;;;3.41;100.00
8705;BME280;4389;41.932;25.904;2023-03-24T01:27:21;100764.81;;;3.59;100.00
8705;BME280;4389;41.932;25.904;2023-03-24T01:29:48;100769.53;;;3.68;100.00
8705;BME280;4389;41.932;25.904;2023-03-24T01:32:15;100775.34;;;3.42;100.00
8705;BME280;4389;41.932;25.904;2023-03-24T01:34:42;100779.31;;;3.49;100.00
8705;BME280;4389;41.932;25.904;2023-03-24T01:37:11;100768.34;;;3.27;100.00
8705;BME280;4389;41.932;25.904;2023-03-24T01:39:37;100773.06;;;3.21;100.00
8705;BME280;4389;41.932;25.904;2023-03-24T01:42:04;100763.09;;;3.27;100.00
8705;BME280;4389;41.932;25.904;2023-03-24T01:44:33;100778.03;;;3.41;100.00
8705;BME280;4389;41.932;25.904;2023-03-24T01:47:01;100772.41;;;3.48;100.00
8705;BME280;4389;41.932;25.904;2023-03-24T01:49:32;100775.25;;;3.44;100.00
8705;BME280;4389;41.932;25.904;2023-03-24T01:52:05;100771.28;;;3.37;100.00
8705;BME280;4389;41.932;25.904;2023-03-24T01:54:37;100761.06;;;3.63;100.00
8705;BME280;4389;41.932;25.904;2023-03-24T01:57:10;100771.03;;;3.41;100.00
8705;BME280;4389;41.932;25.904;2023-03-24T01:59:40;100767.25;;;3.31;100.00
8705;BME280;4389;41.932;25.904;2023-03-24T02:02:09;100768.09;;;3.16;100.00
8705;BME280;4389;41.932;25.904;2023-03-24T02:04:41;100773.81;;;3.23;100.00
8705;BME280;4389;41.932;25.904;2023-03-24T02:07:13;100764.19;;;3.23;100.00
8705;BME280;4389;41.932;25.904;2023-03-24T02:09:43;100766.13;;;3.04;100.00
8705;BME280;4389;41.932;25.904;2023-03-24T02:12:10;100758.09;;;3.07;100.00
8705;BME280;4389;41.932;25.904;2023-03-24T02:14:37;100761.94;;;3.17;100.00
8705;BME280;4389;41.932;25.904;2023-03-24T02:17:21;100754.34;;;3.13;100.00
8705;BME280;4389;41.932;25.904;2023-03-24T02:20:06;100758.53;;;3.15;100.00
8705;BME280;4389;41.932;25.904;2023-03-24T02:23:05;100756.00;;;3.29;100.00
8705;BME280;4389;41.932;25.904;2023-03-24T02:26:14;100754.84;;;3.19;100.00
8705;BME280;4389;41.932;25.904;2023-03-24T02:28:52;100745.75;;;3.26;100.00
8705;BME280;4389;41.932;25.904;2023-03-24T02:34:54;100758.72;;;3.12;100.00
8705;BME280;4389;41.932;25.904;2023-03-24T02:37:42;100764.13;;;3.09;100.00
8705;BME280;4389;41.932;25.904;2023-03-24T02:40:23;100763.25;;;3.09;100.00
8705;BME280;4389;41.932;25.904;2023-03-24T02:43:01;100769.41;;;3.23;100.00
8705;BME280;4389;41.932;25.904;2023-03-24T02:45:35;100762.91;;;2.99;100.00
8705;BME280;4389;41.932;25.904;2023-03-24T02:48:14;100761.38;;;2.95;100.00
8705;BME280;4389;41.932;25.904;2023-03-24T02:50:49;100767.31;;;3.14;100.00
8705;BME280;4389;41.932;25.904;2023-03-24T02:53:19;100775.06;;;3.16;100.00
8705;BME280;4389;41.932;25.904;2023-03-24T02:55:52;100776.56;;;3.04;100.00
8705;BME280;4389;41.932;25.904;2023-03-24T02:58:22;100776.91;;;2.98;100.00
8705;BME280;4389;41.932;25.904;2023-03-24T03:00:55;100782.22;;;3.12;100.00
8705;BME280;4389;41.932;25.904;2023-03-24T03:03:27;100786.53;;;3.13;100.00
8705;BME280;4389;41.932;25.904;2023-03-24T03:06:02;100782.19;;;2.97;100.00
8705;BME280;4389;41.932;25.904;2023-03-24T03:08:32;100783.97;;;2.96;100.00
8705;BME280;4389;41.932;25.904;2023-03-24T03:11:04;100789.66;;;2.87;100.00
8705;BME280;4389;41.932;25.904;2023-03-24T03:13:35;100793.06;;;2.89;100.00
8705;BME280;4389;41.932;25.904;2023-03-24T03:16:06;100795.38;;;2.78;100.00
8705;BME280;4389;41.932;25.904;2023-03-24T03:18:38;100801.97;;;2.85;100.00
8705;BME280;4389;41.932;25.904;2023-03-24T03:21:08;100807.19;;;2.85;100.00
8705;BME280;4389;41.932;25.904;2023-03-24T03:23:39;100806.56;;;2.97;100.00
8705;BME280;4389;41.932;25.904;2023-03-24T03:26:12;100806.69;;;2.94;100.00
8705;BME280;4389;41.932;25.904;2023-03-24T03:28:43;100806.06;;;3.06;100.00
8705;BME280;4389;41.932;25.904;2023-03-24T03:31:18;100806.34;;;3.17;100.00
8705;BME280;4389;41.932;25.904;2023-03-24T03:33:53;100810.00;;;2.98;100.00
8705;BME280;4389;41.932;25.904;2023-03-24T03:36:25;100802.34;;;2.95;100.00
8705;BME280;4389;41.932;25.904;2023-03-24T03:38:58;100815.19;;;2.82;100.00
8705;BME280;4389;41.932;25.904;2023-03-24T03:41:27;100814.22;;;3.00;100.00
8705;BME280;4389;41.932;25.904;2023-03-24T03:43:55;100820.06;;;3.05;100.00
8705;BME280;4389;41.932;25.904;2023-03-24T03:46:22;100819.06;;;3.08;100.00
8705;BME280;4389;41.932;25.904;2023-03-24T03:48:48;100816.97;;;3.14;100.00
8705;BME280;4389;41.932;25.904;2023-03-24T03:51:16;100809.97;;;3.30;100.00
8705;BME280;4389;41.932;25.904;2023-03-24T03:53:46;100811.19;;;3.40;100.00
8705;BME280;4389;41.932;25.904;2023-03-24T03:56:15;100810.03;;;3.61;100.00
8705;BME280;4389;41.932;25.904;2023-03-24T03:58:46;100809.84;;;3.49;100.00
8705;BME280;4389;41.932;25.904;2023-03-24T04:01:15;100801.75;;;3.53;100.00
8705;BME280;4389;41.932;25.904;2023-03-24T04:04:08;100796.75;;;3.33;100.00
8705;BME280;4389;41.932;25.904;2023-03-24T04:06:40;100784.88;;;3.28;100.00
8705;BME280;4389;41.932;25.904;2023-03-24T04:09:20;100775.31;;;3.27;100.00
8705;BME280;4389;41.932;25.904;2023-03-24T04:12:10;100764.63;;;3.31;100.00
8705;BME280;4389;41.932;25.904;2023-03-24T04:14:57;100758.72;;;3.28;100.00
8705;BME280;4389;41.932;25.904;2023-03-24T04:17:38;100759.69;;;2.94;100.00
8705;BME280;4389;41.932;25.904;2023-03-24T04:20:14;100749.63;;;3.19;100.00
8705;BME280;4389;41.932;25.904;2023-03-24T04:22:55;100750.75;;;2.98;100.00
8705;BME280;4389;41.932;25.904;2023-03-24T04:25:29;100747.25;;;3.15;100.00
8705;BME280;4389;41.932;25.904;2023-03-24T04:28:05;100761.91;;;3.02;100.00
8705;BME280;4389;41.932;25.904;2023-03-24T04:30:41;100761.25;;;3.14;100.00
8705;BME280;4389;41.932;25.904;2023-03-24T04:33:11;100767.81;;;3.05;100.00
8705;BME280;4389;41.932;25.904;2023-03-24T04:35:45;100767.47;;;3.11;100.00
8705;BME280;4389;41.932;25.904;2023-03-24T04:38:17;100775.66;;;3.05;100.00
8705;BME280;4389;41.932;25.904;2023-03-24T04:40:48;100769.59;;;3.20;100.00
8705;BME280;4389;41.932;25.904;2023-03-24T04:43:18;100781.06;;;3.18;100.00
8705;BME280;4389;41.932;25.904;2023-03-24T04:45:51;100782.22;;;3.12;100.00
8705;BME280;4389;41.932;25.904;2023-03-24T04:48:22;100783.75;;;3.32;100.00
8705;BME280;4389;41.932;25.904;2023-03-24T04:50:53;100781.50;;;3.41;100.00
8705;BME280;4389;41.932;25.904;2023-03-24T04:53:20;100781.50;;;3.57;100.00
8705;BME280;4389;41.932;25.904;2023-03-24T04:55:59;100793.41;;;3.62;100.00
8705;BME280;4389;41.932;25.904;2023-03-24T04:58:30;100796.69;;;3.81;100.00
8705;BME280;4389;41.932;25.904;2023-03-24T05:00:58;100795.97;;;3.93;100.00
8705;BME280;4389;41.932;25.904;2023-03-24T05:03:25;100801.22;;;3.93;100.00
8705;BME280;4389;41.932;25.904;2023-03-24T05:05:51;100800.19;;;3.96;100.00
8705;BME280;4389;41.932;25.904;2023-03-24T05:08:19;100800.53;;;4.05;100.00
8705;BME280;4389;41.932;25.904;2023-03-24T05:10:46;100810.00;;;4.08;100.00
8705;BME280;4389;41.932;25.904;2023-03-24T05:13:13;100809.19;;;4.50;99.21
8705;BME280;4389;41.932;25.904;2023-03-24T05:15:40;100810.34;;;4.60;98.56
8705;BME280;4389;41.932;25.904;2023-03-24T05:18:09;100800.41;;;4.51;98.37
8705;BME280;4389;41.932;25.904;2023-03-24T05:20:36;100813.94;;;4.87;98.58
8705;BME280;4389;41.932;25.904;2023-03-24T05:23:03;100806.16;;;4.86;97.68
8705;BME280;4389;41.932;25.904;2023-03-24T05:25:30;100804.88;;;5.07;96.87
8705;BME280;4389;41.932;25.904;2023-03-24T05:27:57;100812.34;;;5.27;96.62
8705;BME280;4389;41.932;25.904;2023-03-24T05:30:23;100805.72;;;5.35;95.32
8705;BME280;4389;41.932;25.904;2023-03-24T05:32:50;100811.78;;;5.36;95.16
8705;BME280;4389;41.932;25.904;2023-03-24T05:35:18;100814.03;;;5.28;95.75
8705;BME280;4389;41.932;25.904;2023-03-24T05:37:45;100821.53;;;5.34;95.71
8705;BME280;4389;41.932;25.904;2023-03-24T05:40:13;100817.59;;;5.41;96.28
8705;BME280;4389;41.932;25.904;2023-03-24T05:42:40;100819.78;;;5.34;95.73
8705;BME280;4389;41.932;25.904;2023-03-24T05:45:08;100821.16;;;5.26;95.70
8705;BME280;4389;41.932;25.904;2023-03-24T05:47:36;100822.56;;;5.17;96.39
8705;BME280;4389;41.932;25.904;2023-03-24T05:50:03;100829.13;;;5.24;96.80
8705;BME280;4389;41.932;25.904;2023-03-24T05:52:32;100823.59;;;5.43;96.92
8705;BME280;4389;41.932;25.904;2023-03-24T05:54:59;100829.59;;;5.59;97.15
8705;BME280;4389;41.932;25.904;2023-03-24T05:57:26;100834.81;;;5.87;97.65
8705;BME280;4389;41.932;25.904;2023-03-24T05:59:55;100833.78;;;6.16;96.97
8705;BME280;4389;41.932;25.904;2023-03-24T06:02:22;100831.75;;;6.46;96.75
8705;BME280;4389;41.932;25.904;2023-03-24T06:04:49;100825.59;;;6.59;95.96
8705;BME280;4389;41.932;25.904;2023-03-24T06:07:17;100833.69;;;6.69;95.25
8705;BME280;4389;41.932;25.904;2023-03-24T06:09:46;100832.66;;;6.71;95.06
8705;BME280;4389;41.932;25.904;2023-03-24T06:12:15;100837.97;;;6.96;95.19
8705;BME280;4389;41.932;25.904;2023-03-24T06:14:42;100842.25;;;7.10;95.08
8705;BME280;4389;41.932;25.904;2023-03-24T06:17:10;100850.69;;;7.15;94.07
8705;BME280;4389;41.932;25.904;2023-03-24T06:19:40;100850.59;;;7.29;94.29
8705;BME280;4389;41.932;25.904;2023-03-24T06:22:15;100852.66;;;7.36;94.60
8705;BME280;4389;41.932;25.904;2023-03-24T06:24:42;100847.50;;;7.47;94.26
8705;BME280;4389;41.932;25.904;2023-03-24T06:27:11;100856.03;;;7.51;94.53
8705;BME280;4389;41.932;25.904;2023-03-24T06:29:39;100852.34;;;7.41;95.65
8705;BME280;4389;41.932;25.904;2023-03-24T06:32:08;100854.25;;;7.39;95.67
8705;BME280;4389;41.932;25.904;2023-03-24T06:34:35;100857.91;;;7.61;96.61
8705;BME280;4389;41.932;25.904;2023-03-24T06:37:03;100850.94;;;7.73;96.51
8705;BME280;4389;41.932;25.904;2023-03-24T06:39:30;100857.38;;;8.05;95.78
8705;BME280;4389;41.932;25.904;2023-03-24T06:41:57;100861.28;;;7.99;95.69
8705;BME280;4389;41.932;25.904;2023-03-24T06:44:26;100864.41;;;8.17;95.74
8705;BME280;4389;41.932;25.904;2023-03-24T06:46:53;100870.16;;;8.34;95.79
8705;BME280;4389;41.932;25.904;2023-03-24T06:49:20;100875.31;;;8.36;95.79
8705;BME280;4389;41.932;25.904;2023-03-24T06:51:47;100868.00;;;8.63;95.23
8705;BME280;4389;41.932;25.904;2023-03-24T06:54:13;100874.81;;;8.54;95.08
8705;BME280;4389;41.932;25.904;2023-03-24T06:56:41;100869.63;;;8.76;95.70
8705;BME280;4389;41.932;25.904;2023-03-24T06:59:08;100866.06;;;8.99;95.70
8705;BME280;4389;41.932;25.904;2023-03-24T07:01:36;100870.06;;;9.26;93.96
8705;BME280;4389;41.932;25.904;2023-03-24T07:04:04;100863.28;;;9.46;94.24
8705;BME280;4389;41.932;25.904;2023-03-24T07:06:31;100865.09;;;9.56;92.74
8705;BME280;4389;41.932;25.904;2023-03-24T07:08:59;100862.69;;;9.64;93.98
8705;BME280;4389;41.932;25.904;2023-03-24T07:11:26;100866.75;;;9.68;93.86
8705;BME280;4389;41.932;25.904;2023-03-24T07:13:53;100865.06;;;9.67;95.22
8705;BME280;4389;41.932;25.904;2023-03-24T07:16:20;100861.69;;;9.87;95.18
8705;BME280;4389;41.932;25.904;2023-03-24T07:18:49;100859.03;;;9.98;94.73
8705;BME280;4389;41.932;25.904;2023-03-24T07:21:16;100854.72;;;10.08;94.75
8705;BME280;4389;41.932;25.904;2023-03-24T07:23:43;100862.75;;;10.07;94.60
8705;BME280;4389;41.932;25.904;2023-03-24T07:26:10;100866.00;;;9.99;95.06
8705;BME280;4389;41.932;25.904;2023-03-24T07:28:37;100862.28;;;10.13;95.35
8705;BME280;4389;41.932;25.904;2023-03-24T07:31:04;100858.50;;;10.26;94.58
8705;BME280;4389;41.932;25.904;2023-03-24T07:33:35;100854.06;;;10.27;94.86
8705;BME280;4389;41.932;25.904;2023-03-24T07:36:04;100846.34;;;10.35;94.93
8705;BME280;4389;41.932;25.904;2023-03-24T07:38:32;100848.13;;;10.45;95.19
8705;BME280;4389;41.932;25.904;2023-03-24T07:40:59;100842.28;;;10.62;95.99
8705;BME280;4389;41.932;25.904;2023-03-24T07:43:26;100844.63;;;10.76;93.84
8705;BME280;4389;41.932;25.904;2023-03-24T07:45:53;100838.44;;;10.87;93.56
8705;BME280;4389;41.932;25.904;2023-03-24T07:48:20;100839.91;;;11.00;94.23
8705;BME280;4389;41.932;25.904;2023-03-24T07:50:47;100833.94;;;11.28;93.85
8705;BME280;4389;41.932;25.904;2023-03-24T07:53:15;100821.41;;;11.30;91.77
8705;BME280;4389;41.932;25.904;2023-03-24T07:55:44;100827.59;;;11.40;91.93
8705;BME280;4389;41.932;25.904;2023-03-24T07:58:11;100820.72;;;11.58;91.45
8705;BME280;4389;41.932;25.904;2023-03-24T08:00:38;100817.81;;;11.71;91.61
8705;BME280;4389;41.932;25.904;2023-03-24T08:03:04;100821.94;;;11.84;91.33
8705;BME280;4389;41.932;25.904;2023-03-24T08:05:33;100814.66;;;11.86;90.99
8705;BME280;4389;41.932;25.904;2023-03-24T08:08:01;100816.25;;;11.98;90.59
8705;BME280;4389;41.932;25.904;2023-03-24T08:10:31;100808.56;;;12.14;90.62
8705;BME280;4389;41.932;25.904;2023-03-24T08:12:58;100812.63;;;12.37;90.26
8705;BME280;4389;41.932;25.904;2023-03-24T08:15:26;100799.94;;;12.31;89.00
8705;BME280;4389;41.932;25.904;2023-03-24T08:17:53;100811.94;;;12.35;88.53
8705;BME280;4389;41.932;25.904;2023-03-24T08:20:21;100807.63;;;12.44;88.13
8705;BME280;4389;41.932;25.904;2023-03-24T08:22:49;100797.00;;;12.53;88.58
8705;BME280;4389;41.932;25.904;2023-03-24T08:25:20;100800.50;;;12.63;88.29
8705;BME280;4389;41.932;25.904;2023-03-24T08:27:49;100790.41;;;12.76;88.85
8705;BME280;4389;41.932;25.904;2023-03-24T08:30:17;100795.97;;;12.92;88.53
8705;BME280;4389;41.932;25.904;2023-03-24T08:32:45;100789.25;;;13.07;87.95
8705;BME280;4389;41.932;25.904;2023-03-24T08:35:13;100783.69;;;12.91;86.33
8705;BME280;4389;41.932;25.904;2023-03-24T08:37:41;100781.41;;;13.15;86.53
8705;BME280;4389;41.932;25.904;2023-03-24T08:40:11;100783.56;;;13.39;85.86
8705;BME280;4389;41.932;25.904;2023-03-24T08:42:39;100780.75;;;13.40;85.01
8705;BME280;4389;41.932;25.904;2023-03-24T08:45:10;100780.66;;;13.59;84.72
8705;BME280;4389;41.932;25.904;2023-03-24T08:47:38;100787.06;;;13.66;83.49
8705;BME280;4389;41.932;25.904;2023-03-24T08:50:07;100780.91;;;13.66;83.17
8705;BME280;4389;41.932;25.904;2023-03-24T08:52:34;100773.25;;;13.80;83.72
8705;BME280;4389;41.932;25.904;2023-03-24T08:55:01;100775.72;;;13.91;82.34
8705;BME280;4389;41.932;25.904;2023-03-24T08:57:28;100779.19;;;13.91;81.15
8705;BME280;4389;41.932;25.904;2023-03-24T08:59:55;100772.75;;;13.94;81.92
8705;BME280;4389;41.932;25.904;2023-03-24T09:02:24;100783.88;;;14.07;80.66
8705;BME280;4389;41.932;25.904;2023-03-24T09:04:51;100765.75;;;14.20;79.45
8705;BME280;4389;41.932;25.904;2023-03-24T09:07:19;100772.41;;;14.24;78.70
8705;BME280;4389;41.932;25.904;2023-03-24T09:09:46;100763.38;;;14.34;77.87
8705;BME280;4389;41.932;25.904;2023-03-24T09:12:13;100758.81;;;14.44;77.31
8705;BME280;4389;41.932;25.904;2023-03-24T09:14:40;100756.81;;;14.64;78.11
8705;BME280;4389;41.932;25.904;2023-03-24T09:17:07;100752.53;;;14.71;77.84
8705;BME280;4389;41.932;25.904;2023-03-24T09:19:35;100752.28;;;14.82;76.96
8705;BME280;4389;41.932;25.904;2023-03-24T09:22:02;100759.00;;;14.94;75.21
8705;BME280;4389;41.932;25.904;2023-03-24T09:24:29;100758.84;;;14.95;75.44
8705;BME280;4389;41.932;25.904;2023-03-24T09:26:56;100755.44;;;15.03;74.49
8705;BME280;4389;41.932;25.904;2023-03-24T09:29:23;100756.13;;;15.13;73.08
8705;BME280;4389;41.932;25.904;2023-03-24T09:31:50;100745.38;;;15.22;73.12
8705;BME280;4389;41.932;25.904;2023-03-24T09:34:18;100751.59;;;15.31;72.14
8705;BME280;4389;41.932;25.904;2023-03-24T09:36:46;100742.06;;;15.28;71.50
8705;BME280;4389;41.932;25.904;2023-03-24T09:39:13;100744.31;;;15.41;71.46
8705;BME280;4389;41.932;25.904;2023-03-24T09:41:41;100740.31;;;15.45;71.95
8705;BME280;4389;41.932;25.904;2023-03-24T09:44:21;100744.72;;;15.54;70.59
8705;BME280;4389;41.932;25.904;2023-03-24T09:46:51;100743.34;;;15.50;69.35
8705;BME280;4389;41.932;25.904;2023-03-24T09:49:22;100736.28;;;15.33;70.10
8705;BME280;4389;41.932;25.904;2023-03-24T09:51:55;100728.69;;;15.54;70.12
8705;BME280;4389;41.932;25.904;2023-03-24T09:54:29;100730.03;;;15.58;68.79
8705;BME280;4389;41.932;25.904;2023-03-24T09:56:57;100732.06;;;15.72;68.15
8705;BME280;4389;41.932;25.904;2023-03-24T09:59:31;100721.41;;;15.80;67.92
8705;BME280;4389;41.932;25.904;2023-03-24T10:02:00;100725.59;;;15.74;67.89
8705;BME280;4389;41.932;25.904;2023-03-24T10:04:29;100719.09;;;15.85;68.14
8705;BME280;4389;41.932;25.904;2023-03-24T10:07:03;100718.81;;;16.04;62.35
8705;BME280;4389;41.932;25.904;2023-03-24T10:09:34;100719.34;;;16.15;63.27
8705;BME280;4389;41.932;25.904;2023-03-24T10:12:13;100722.03;;;16.39;63.12
8705;BME280;4389;41.932;25.904;2023-03-24T10:14:54;100725.53;;;16.32;61.87
8705;BME280;4389;41.932;25.904;2023-03-24T10:17:28;100722.22;;;16.54;62.11
8705;BME280;4389;41.932;25.904;2023-03-24T10:20:02;100719.34;;;16.47;61.14
8705;BME280;4389;41.932;25.904;2023-03-24T10:22:38;100714.72;;;16.41;60.88
8705;BME280;4389;41.932;25.904;2023-03-24T10:25:12;100707.19;;;16.53;61.43
8705;BME280;4389;41.932;25.904;2023-03-24T10:27:45;100713.50;;;16.76;58.87
8705;BME280;4389;41.932;25.904;2023-03-24T10:30:15;100703.13;;;16.73;59.44
8705;BME280;4389;41.932;25.904;2023-03-24T10:32:43;100711.16;;;16.81;58.78
8705;BME280;4389;41.932;25.904;2023-03-24T10:35:15;100710.81;;;16.84;57.81
8705;BME280;4389;41.932;25.904;2023-03-24T10:37:45;100700.06;;;17.00;57.56
8705;BME280;4389;41.932;25.904;2023-03-24T10:40:17;100696.44;;;16.85;56.83
8705;BME280;4389;41.932;25.904;2023-03-24T10:42:46;100694.41;;;16.95;54.62
8705;BME280;4389;41.932;25.904;2023-03-24T10:45:21;100692.44;;;16.73;55.59
8705;BME280;4389;41.932;25.904;2023-03-24T10:47:50;100682.28;;;16.60;56.25
8705;BME280;4389;41.932;25.904;2023-03-24T10:50:23;100690.06;;;16.86;55.61
8705;BME280;4389;41.932;25.904;2023-03-24T10:52:51;100686.41;;;16.95;55.08
8705;BME280;4389;41.932;25.904;2023-03-24T10:55:21;100675.97;;;17.08;53.74
8705;BME280;4389;41.932;25.904;2023-03-24T10:57:51;100668.44;;;17.19;53.91
8705;BME280;4389;41.932;25.904;2023-03-24T11:00:23;100664.88;;;17.27;53.34
8705;BME280;4389;41.932;25.904;2023-03-24T11:02:55;100661.84;;;17.38;54.90
8705;BME280;4389;41.932;25.904;2023-03-24T11:05:26;100668.03;;;17.38;53.64
8705;BME280;4389;41.932;25.904;2023-03-24T11:08:10;100657.13;;;17.48;52.99
8705;BME280;4389;41.932;25.904;2023-03-24T11:10:38;100653.16;;;17.66;51.87
8705;BME280;4389;41.932;25.904;2023-03-24T11:13:16;100646.94;;;17.74;52.53
8705;BME280;4389;41.932;25.904;2023-03-24T11:15:52;100651.03;;;17.84;51.87
8705;BME280;4389;41.932;25.904;2023-03-24T11:18:21;100643.28;;;17.89;52.19
8705;BME280;4389;41.932;25.904;2023-03-24T11:20:51;100641.06;;;17.93;51.82
8705;BME280;4389;41.932;25.904;2023-03-24T11:23:25;100634.28;;;18.05;51.80
8705;BME280;4389;41.932;25.904;2023-03-24T11:26:03;100633.50;;;18.19;52.02
8705;BME280;4389;41.932;25.904;2023-03-24T11:28:36;100631.41;;;18.29;50.93
8705;BME280;4389;41.932;25.904;2023-03-24T11:31:06;100623.81;;;18.18;50.49
8705;BME280;4389;41.932;25.904;2023-03-24T11:33:41;100620.53;;;18.08;51.31
8705;BME280;4389;41.932;25.904;2023-03-24T11:36:36;100615.47;;;18.13;51.67
8705;BME280;4389;41.932;25.904;2023-03-24T11:39:10;100610.50;;;18.10;50.79
8705;BME280;4389;41.932;25.904;2023-03-24T11:41:40;100611.31;;;18.33;50.92
8705;BME280;4389;41.932;25.904;2023-03-24T11:44:16;100606.44;;;18.51;49.30
8705;BME280;4389;41.932;25.904;2023-03-24T11:46:45;100614.13;;;18.54;49.35
8705;BME280;4389;41.932;25.904;2023-03-24T11:49:18;100604.50;;;18.59;49.67
8705;BME280;4389;41.932;25.904;2023-03-24T11:51:48;100593.56;;;18.32;49.15
8705;BME280;4389;41.932;25.904;2023-03-24T11:54:20;100586.59;;;18.23;50.62
8705;BME280;4389;41.932;25.904;2023-03-24T11:56:51;100581.50;;;18.28;50.20
8705;BME280;4389;41.932;25.904;2023-03-24T11:59:26;100573.41;;;18.36;51.03
8705;BME280;4389;41.932;25.904;2023-03-24T12:02:00;100566.25;;;18.51;50.40
8705;BME280;4389;41.932;25.904;2023-03-24T12:04:37;100562.25;;;18.61;50.34
8705;BME280;4389;41.932;25.904;2023-03-24T12:07:35;100555.50;;;18.80;50.08
8705;BME280;4389;41.932;25.904;2023-03-24T12:10:15;100552.72;;;18.88;49.65
8705;BME280;4389;41.932;25.904;2023-03-24T12:12:51;100557.06;;;18.88;48.97
8705;BME280;4389;41.932;25.904;2023-03-24T12:15:33;100550.78;;;18.82;49.15
8705;BME280;4389;41.932;25.904;2023-03-24T12:18:24;100544.56;;;18.95;49.47
8705;BME280;4389;41.932;25.904;2023-03-24T12:20:57;100543.81;;;19.01;48.09
8705;BME280;4389;41.932;25.904;2023-03-24T12:23:35;100542.91;;;18.94;47.59
8705;BME280;4389;41.932;25.904;2023-03-24T12:26:19;100544.91;;;18.92;47.42
8705;BME280;4389;41.932;25.904;2023-03-24T12:29:11;100532.28;;;18.87;48.03
8705;BME280;4389;41.932;25.904;2023-03-24T12:32:13;100522.72;;;18.98;47.39
8705;BME280;4389;41.932;25.904;2023-03-24T12:35:05;100522.50;;;19.14;46.62
8705;BME280;4389;41.932;25.904;2023-03-24T12:37:45;100529.25;;;19.25;46.69
8705;BME280;4389;41.932;25.904;2023-03-24T12:40:33;100522.31;;;19.30;45.73
8705;BME280;4389;41.932;25.904;2023-03-24T12:43:15;100524.78;;;19.32;45.58
8705;BME280;4389;41.932;25.904;2023-03-24T12:45:45;100523.66;;;19.41;44.86
8705;BME280;4389;41.932;25.904;2023-03-24T12:48:31;100529.19;;;19.39;44.04
8705;BME280;4389;41.932;25.904;2023-03-24T12:51:14;100518.59;;;19.31;44.00
8705;BME280;4389;41.932;25.904;2023-03-24T12:53:54;100518.06;;;19.21;43.65
8705;BME280;4389;41.932;25.904;2023-03-24T12:56:30;100506.44;;;19.35;43.00
8705;BME280;4389;41.932;25.904;2023-03-24T12:59:02;100499.94;;;19.23;43.17
8705;BME280;4389;41.932;25.904;2023-03-24T13:01:34;100495.69;;;19.14;43.03
8705;BME280;4389;41.932;25.904;2023-03-24T13:04:09;100501.81;;;19.08;42.47
8705;BME280;4389;41.932;25.904;2023-03-24T13:06:41;100496.81;;;19.05;43.66
8705;BME280;4389;41.932;25.904;2023-03-24T13:09:16;100493.63;;;19.16;42.92
8705;BME280;4389;41.932;25.904;2023-03-24T13:11:51;100487.44;;;19.16;41.96
8705;BME280;4389;41.932;25.904;2023-03-24T13:14:26;100491.22;;;19.21;41.03
8705;BME280;4389;41.932;25.904;2023-03-24T13:17:02;100481.78;;;19.25;41.31
8705;BME280;4389;41.932;25.904;2023-03-24T13:19:32;100476.88;;;19.29;41.25
8705;BME280;4389;41.932;25.904;2023-03-24T13:22:01;100478.16;;;19.33;39.79
8705;BME280;4389;41.932;25.904;2023-03-24T13:24:30;100471.94;;;19.32;41.12
8705;BME280;4389;41.932;25.904;2023-03-24T13:27:04;100482.53;;;19.19;40.32